createdAt,value
2022-09-14T00:01:26.870Z,1.65
2022-09-14T00:03:56.813Z,1.67
2022-09-14T00:06:26.368Z,1.90
2022-09-14T00:08:55.543Z,1.95
2022-09-14T00:11:25.093Z,1.90
2022-09-14T00:13:54.039Z,1.90
2022-09-14T00:16:24.159Z,1.90
2022-09-14T00:18:53.347Z,1.90
2022-09-14T00:21:21.441Z,1.88
2022-09-14T00:23:50.866Z,1.90
2022-09-14T00:26:23.829Z,1.70
2022-09-14T00:28:53.386Z,1.70
2022-09-14T00:31:22.421Z,1.85
2022-09-14T00:33:51.611Z,1.80
2022-09-14T00:36:22.001Z,1.90
2022-09-14T00:38:51.581Z,1.80
2022-09-14T00:41:28.974Z,1.83
2022-09-14T00:43:59.429Z,1.90
2022-09-14T00:46:29.339Z,1.75
2022-09-14T00:49:00.936Z,2.13
2022-09-14T00:51:30.985Z,1.98
2022-09-14T00:54:02.696Z,1.98
2022-09-14T00:56:30.898Z,1.95
2022-09-14T00:59:00.706Z,2.33
2022-09-14T01:01:28.616Z,2.22
2022-09-14T01:03:56.279Z,1.80
2022-09-14T01:06:35.957Z,1.63
2022-09-14T01:09:19.089Z,1.80
2022-09-14T01:12:06.798Z,1.90
2022-09-14T01:14:43.634Z,1.95
2022-09-14T01:17:17.602Z,1.70
2022-09-14T01:20:10.949Z,1.95
2022-09-14T01:22:47.667Z,1.85
2022-09-14T01:25:38.838Z,1.90
2022-09-14T01:28:13.558Z,1.75
2022-09-14T01:30:43.712Z,2.10
2022-09-14T01:33:18.923Z,2.10
2022-09-14T01:35:53.329Z,1.60
2022-09-14T01:38:24.428Z,1.90
2022-09-14T01:40:52.473Z,1.85
2022-09-14T01:43:26.226Z,1.60
2022-09-14T01:45:57.077Z,1.90
2022-09-14T01:48:32.731Z,1.77
2022-09-14T01:51:04.339Z,1.90
2022-09-14T01:53:37.699Z,1.60
2022-09-14T01:56:11.974Z,1.60
2022-09-14T01:58:45.908Z,1.90
2022-09-14T02:01:19.177Z,1.60
2022-09-14T02:03:50.933Z,1.75
2022-09-14T02:06:24.893Z,1.55
2022-09-14T02:08:53.248Z,1.80
2022-09-14T02:11:21.087Z,1.95
2022-09-14T02:13:50.160Z,1.70
2022-09-14T02:16:18.019Z,1.58
2022-09-14T02:18:45.873Z,2.00
2022-09-14T02:21:16.959Z,1.80
2022-09-14T02:23:44.802Z,1.70
2022-09-14T02:26:12.814Z,1.80
2022-09-14T02:28:40.495Z,1.70
2022-09-14T02:31:18.676Z,1.80
2022-09-14T02:33:55.745Z,1.60
2022-09-14T02:36:29.675Z,1.77
2022-09-14T02:39:03.402Z,1.80
2022-09-14T02:41:42.040Z,2.08
2022-09-14T02:44:17.318Z,2.38
2022-09-14T02:46:51.624Z,1.67
2022-09-14T02:49:24.015Z,1.80
2022-09-14T02:54:31.829Z,1.65
2022-09-14T02:57:01.667Z,1.70
2022-09-14T02:59:29.816Z,1.90
2022-09-14T03:02:00.858Z,1.60
2022-09-14T03:04:29.036Z,1.90
2022-09-14T03:06:56.906Z,1.90
2022-09-14T03:09:24.554Z,1.92
2022-09-14T03:11:52.154Z,1.42
2022-09-14T03:14:19.735Z,2.05
2022-09-14T03:16:47.361Z,1.48
2022-09-14T03:19:16.558Z,3.22
2022-09-14T03:21:44.174Z,1.83
2022-09-14T03:24:12.137Z,1.60
2022-09-14T03:26:40.087Z,1.90
2022-09-14T03:29:07.926Z,1.70
2022-09-14T03:31:35.767Z,2.00
2022-09-14T03:34:03.917Z,1.70
2022-09-14T03:36:33.257Z,1.63
2022-09-14T03:39:02.703Z,1.60
2022-09-14T03:41:30.895Z,1.88
2022-09-14T03:43:58.533Z,1.92
2022-09-14T03:46:26.959Z,2.20
2022-09-14T03:48:55.838Z,2.03
2022-09-14T03:51:23.811Z,1.38
2022-09-14T03:53:53.104Z,2.10
2022-09-14T03:56:23.114Z,2.30
2022-09-14T03:58:51.346Z,1.92
2022-09-14T04:01:21.387Z,1.75
2022-09-14T04:03:50.254Z,1.98
2022-09-14T04:06:19.176Z,1.90
2022-09-14T04:08:48.355Z,2.10
2022-09-14T04:11:19.982Z,1.77
2022-09-14T04:13:48.531Z,1.83
2022-09-14T04:16:17.893Z,2.40
2022-09-14T04:18:45.789Z,2.28
2022-09-14T04:21:15.925Z,2.10
2022-09-14T04:24:03.451Z,2.28
2022-09-14T04:26:33.580Z,1.85
2022-09-14T04:29:01.218Z,2.20
2022-09-14T04:31:28.967Z,2.33
2022-09-14T04:33:57.635Z,2.05
2022-09-14T04:36:29.377Z,1.80
2022-09-14T04:38:58.609Z,1.90
2022-09-14T04:41:27.524Z,1.75
2022-09-14T04:43:57.719Z,1.90
2022-09-14T04:46:27.599Z,2.30
2022-09-14T04:48:55.492Z,1.80
2022-09-14T04:51:25.039Z,2.08
2022-09-14T04:53:55.069Z,2.42
2022-09-14T04:56:24.450Z,1.83
2022-09-14T04:58:54.012Z,1.70
2022-09-14T05:01:24.904Z,2.00
2022-09-14T05:03:53.231Z,1.92
2022-09-14T05:06:23.104Z,2.70
2022-09-14T05:08:52.079Z,2.10
2022-09-14T05:11:21.456Z,2.00
2022-09-14T05:13:50.410Z,2.75
2022-09-14T05:16:20.139Z,2.00
2022-09-14T05:18:50.258Z,2.40
2022-09-14T05:21:20.471Z,2.30
2022-09-14T05:23:49.359Z,2.55
2022-09-14T05:26:17.298Z,2.40
2022-09-14T05:28:44.912Z,2.65
2022-09-14T05:31:13.096Z,2.33
2022-09-14T05:33:40.948Z,2.40
2022-09-14T05:36:10.591Z,3.45
2022-09-14T05:38:40.174Z,3.00
2022-09-14T05:41:09.545Z,2.60
2022-09-14T05:43:37.216Z,3.05
2022-09-14T05:46:06.604Z,2.75
2022-09-14T05:48:35.015Z,3.05
2022-09-14T05:51:04.290Z,2.85
2022-09-14T05:53:33.333Z,3.50
2022-09-14T05:56:02.197Z,3.40
2022-09-14T05:58:30.154Z,3.40
2022-09-14T06:00:58.023Z,3.65
2022-09-14T06:03:26.104Z,2.65
2022-09-14T06:05:54.876Z,3.70
2022-09-14T06:08:23.429Z,2.60
2022-09-14T06:10:52.472Z,2.30
2022-09-14T06:13:20.118Z,3.20
2022-09-14T06:15:47.749Z,2.95
2022-09-14T06:18:15.434Z,5.13
2022-09-14T06:20:51.523Z,3.00
2022-09-14T06:23:19.562Z,3.03
2022-09-14T06:25:47.147Z,3.17
2022-09-14T06:28:16.163Z,3.50
2022-09-14T06:30:45.032Z,3.58
2022-09-14T06:33:12.697Z,3.22
2022-09-14T06:35:42.017Z,3.75
2022-09-14T06:38:09.987Z,3.72
2022-09-14T06:40:37.632Z,5.63
2022-09-14T06:43:05.236Z,5.38
2022-09-14T06:45:34.255Z,3.42
2022-09-14T06:48:02.102Z,4.82
2022-09-14T06:50:29.800Z,4.07
2022-09-14T06:52:57.435Z,3.50
2022-09-14T06:55:25.085Z,4.35
2022-09-14T06:57:52.756Z,3.60
2022-09-14T07:00:20.539Z,3.65
2022-09-14T07:02:52.463Z,2.95
2022-09-14T07:05:23.128Z,4.03
2022-09-14T07:07:53.360Z,2.65
2022-09-14T07:10:21.030Z,3.47
2022-09-14T07:12:48.718Z,3.90
2022-09-14T07:15:16.446Z,3.15
2022-09-14T07:17:47.147Z,3.50
2022-09-14T07:20:16.417Z,3.33
2022-09-14T07:22:45.099Z,3.30
2022-09-14T07:25:13.013Z,2.35
2022-09-14T07:27:40.690Z,3.65
2022-09-14T07:30:09.647Z,3.03
2022-09-14T07:32:37.281Z,3.05
2022-09-14T07:35:05.298Z,3.47
2022-09-14T07:37:34.368Z,3.83
2022-09-14T07:40:02.349Z,3.83
2022-09-14T07:42:30.049Z,3.20
2022-09-14T07:44:57.753Z,3.42
2022-09-14T07:47:25.577Z,3.30
2022-09-14T07:49:53.198Z,3.00
2022-09-14T07:52:23.225Z,2.85
2022-09-14T07:54:52.601Z,3.20
2022-09-14T07:57:33.964Z,3.47
2022-09-14T08:00:10.014Z,4.15
2022-09-14T08:02:37.729Z,4.70
2022-09-14T08:05:05.943Z,3.90
2022-09-14T08:07:33.805Z,3.80
2022-09-14T08:10:03.136Z,3.65
2022-09-14T08:12:31.116Z,2.58
2022-09-14T08:14:58.768Z,3.58
2022-09-14T08:17:26.523Z,3.97
2022-09-14T08:19:55.637Z,2.90
2022-09-14T08:22:23.307Z,2.92
2022-09-14T08:24:51.006Z,2.92
2022-09-14T08:27:20.034Z,2.55
2022-09-14T08:29:47.638Z,2.92
2022-09-14T08:32:15.267Z,3.20
2022-09-14T08:34:42.903Z,2.83
2022-09-14T08:37:10.971Z,2.80
2022-09-14T08:39:38.625Z,2.80
2022-09-14T08:42:07.032Z,2.60
2022-09-14T08:44:41.639Z,3.10
2022-09-14T08:47:13.654Z,4.00
2022-09-14T08:49:47.608Z,3.53
2022-09-14T08:52:23.270Z,3.08
2022-09-14T08:54:55.035Z,2.72
2022-09-14T08:57:29.606Z,2.10
2022-09-14T09:00:08.015Z,2.47
2022-09-14T09:02:51.010Z,3.00
2022-09-14T09:05:31.362Z,3.17
2022-09-14T09:08:06.193Z,2.90
2022-09-14T09:10:36.360Z,2.67
2022-09-14T09:13:06.678Z,3.00
2022-09-14T09:15:38.174Z,2.92
2022-09-14T09:18:09.793Z,3.47
2022-09-14T09:20:41.526Z,2.60
2022-09-14T09:23:14.269Z,2.58
2022-09-14T09:26:04.706Z,2.97
2022-09-14T09:28:33.645Z,3.30
2022-09-14T09:31:10.185Z,3.00
2022-09-14T09:33:40.482Z,3.53
2022-09-14T09:36:13.415Z,2.90
2022-09-14T09:38:41.444Z,2.60
2022-09-14T09:41:15.107Z,2.60
2022-09-14T09:43:59.879Z,2.53
2022-09-14T09:46:31.879Z,3.40
2022-09-14T09:49:00.370Z,3.42
2022-09-14T09:51:31.454Z,3.22
2022-09-14T09:54:08.627Z,3.42
2022-09-14T09:56:39.458Z,3.97
2022-09-14T09:59:23.345Z,3.08
2022-09-14T10:01:55.549Z,3.10
2022-09-14T10:04:27.870Z,3.40
2022-09-14T10:06:57.686Z,3.35
2022-09-14T10:09:28.161Z,3.75
2022-09-14T10:12:01.478Z,3.95
2022-09-14T10:14:32.233Z,3.80
2022-09-14T10:17:16.646Z,4.50
2022-09-14T10:19:48.761Z,3.70
2022-09-14T10:22:26.761Z,4.65
2022-09-14T10:24:57.507Z,5.10
2022-09-14T10:27:39.630Z,4.20
2022-09-14T10:30:13.247Z,3.67
2022-09-14T10:32:45.817Z,3.92
2022-09-14T10:35:15.309Z,3.80
2022-09-14T10:37:56.442Z,4.18
2022-09-14T10:40:31.721Z,3.70
2022-09-14T10:43:10.131Z,3.67
2022-09-14T10:45:42.331Z,3.00
2022-09-14T10:48:43.681Z,3.92
2022-09-14T10:51:36.120Z,3.65
2022-09-14T10:54:13.865Z,2.65
2022-09-14T10:56:57.038Z,3.60
2022-09-14T10:59:32.758Z,3.45
2022-09-14T11:02:37.892Z,3.30
2022-09-14T11:05:13.107Z,3.13
2022-09-14T11:07:53.444Z,3.00
2022-09-14T11:10:29.332Z,2.88
2022-09-14T11:13:19.408Z,2.78
2022-09-14T11:15:57.959Z,2.97
2022-09-14T11:18:34.564Z,3.25
2022-09-14T11:21:10.175Z,2.40
2022-09-14T11:23:48.920Z,2.88
2022-09-14T11:26:23.743Z,3.78
2022-09-14T11:28:55.078Z,3.70
2022-09-14T11:31:27.715Z,3.10
2022-09-14T11:34:00.077Z,4.18
2022-09-14T11:36:34.051Z,2.92
2022-09-14T11:39:07.210Z,4.05
2022-09-14T11:41:40.346Z,3.80
2022-09-14T11:44:14.411Z,3.33
2022-09-14T11:46:45.153Z,3.72
2022-09-14T11:49:19.732Z,4.10
2022-09-14T11:51:53.525Z,2.83
2022-09-14T11:54:23.542Z,3.17
2022-09-14T11:56:53.702Z,3.45
2022-09-14T11:59:48.361Z,4.35
2022-09-14T12:02:52.454Z,3.50
2022-09-14T12:05:33.163Z,3.42
2022-09-14T12:08:21.265Z,2.75
2022-09-14T12:11:28.593Z,3.03
2022-09-14T12:14:16.229Z,3.05
2022-09-14T12:17:39.909Z,3.22
2022-09-14T12:20:45.085Z,3.83
2022-09-14T12:23:24.648Z,3.88
2022-09-14T12:26:03.637Z,3.47
2022-09-14T12:28:43.463Z,4.65
2022-09-14T12:31:15.927Z,3.88
2022-09-14T12:34:15.857Z,4.05
2022-09-14T12:37:20.210Z,4.50
2022-09-14T12:40:27.843Z,4.00
2022-09-14T12:42:56.851Z,4.07
2022-09-14T12:45:51.249Z,4.03
2022-09-14T12:48:58.594Z,4.22
2022-09-14T12:51:37.691Z,4.70
2022-09-14T12:54:18.265Z,5.10
2022-09-14T12:56:56.372Z,4.93
2022-09-14T12:59:32.472Z,5.25
2022-09-14T13:02:14.836Z,4.65
2022-09-14T13:04:45.555Z,4.82
2022-09-14T13:07:15.912Z,6.03
2022-09-14T13:09:49.110Z,4.40
2022-09-14T13:12:24.842Z,3.70
2022-09-14T13:14:56.538Z,4.75
2022-09-14T13:17:24.199Z,4.00
2022-09-14T13:19:56.467Z,3.50
2022-09-14T13:22:26.009Z,3.35
2022-09-14T13:24:56.228Z,4.20
2022-09-14T13:27:27.021Z,3.60
2022-09-14T13:30:05.189Z,3.08
2022-09-14T13:32:35.835Z,3.00
2022-09-14T13:35:05.982Z,2.72
2022-09-14T13:37:33.720Z,3.50
2022-09-14T13:40:01.547Z,3.28
2022-09-14T13:42:29.395Z,3.63
2022-09-14T13:44:57.236Z,3.55
2022-09-14T13:47:26.934Z,4.18
2022-09-14T13:49:55.870Z,3.40
2022-09-14T13:52:57.463Z,3.47
2022-09-14T13:55:27.646Z,4.20
2022-09-14T13:58:17.245Z,4.00
2022-09-14T14:00:58.002Z,3.97
2022-09-14T14:03:30.749Z,4.40
2022-09-14T14:05:59.209Z,4.32
2022-09-14T14:08:34.118Z,4.82
2022-09-14T14:11:05.154Z,4.50
2022-09-14T14:13:35.456Z,4.40
2022-09-14T14:16:18.168Z,5.47
2022-09-14T14:18:53.262Z,4.93
2022-09-14T14:21:30.050Z,5.70
2022-09-14T14:24:28.418Z,5.57
2022-09-14T14:26:57.879Z,6.25
2022-09-14T14:29:26.808Z,4.85
2022-09-14T14:31:56.823Z,5.15
2022-09-14T14:34:28.794Z,4.70
2022-09-14T14:36:57.589Z,5.00
2022-09-14T14:39:26.482Z,6.00
2022-09-14T14:41:54.527Z,18.00
2022-09-14T14:44:24.212Z,11.93
2022-09-14T14:46:52.251Z,6.00
2022-09-14T14:49:20.889Z,8.38
2022-09-14T14:51:49.955Z,6.50
2022-09-14T14:54:18.725Z,5.95
2022-09-14T14:56:47.843Z,5.55
2022-09-14T14:59:28.518Z,5.68
2022-09-14T15:01:57.100Z,6.80
2022-09-14T15:04:25.316Z,4.55
2022-09-14T15:06:54.496Z,4.18
2022-09-14T15:09:25.432Z,4.80
2022-09-14T15:11:54.626Z,4.00
2022-09-14T15:14:26.969Z,5.03
2022-09-14T15:16:59.740Z,5.10
2022-09-14T15:19:28.105Z,4.65
2022-09-14T15:22:00.963Z,4.20
2022-09-14T15:24:29.941Z,4.47
2022-09-14T15:26:57.827Z,4.40
2022-09-14T15:29:25.662Z,4.72
2022-09-14T15:31:53.409Z,4.60
2022-09-14T15:34:21.300Z,4.78
2022-09-14T15:36:51.239Z,4.07
2022-09-14T15:39:21.954Z,3.13
2022-09-14T15:41:49.993Z,3.58
2022-09-14T15:44:18.014Z,3.33
2022-09-14T15:46:46.860Z,2.90
2022-09-14T15:49:17.774Z,2.75
2022-09-14T15:51:47.750Z,3.00
2022-09-14T15:54:16.002Z,3.22
2022-09-14T15:56:49.676Z,2.97
2022-09-14T15:59:21.988Z,2.97
2022-09-14T16:01:49.977Z,4.00
2022-09-14T16:04:18.040Z,3.00
2022-09-14T16:06:46.130Z,3.30
2022-09-14T16:09:15.917Z,2.95
2022-09-14T16:11:45.318Z,3.70
2022-09-14T16:14:12.999Z,4.47
2022-09-14T16:16:41.409Z,4.65
2022-09-14T16:19:11.501Z,5.00
2022-09-14T16:21:39.782Z,4.60
2022-09-14T16:24:11.301Z,7.25
2022-09-14T16:26:39.705Z,5.23
2022-09-14T16:29:11.616Z,6.25
2022-09-14T16:31:41.506Z,6.30
2022-09-14T16:34:12.541Z,6.40
2022-09-14T16:36:41.395Z,6.80
2022-09-14T16:39:12.146Z,7.65
2022-09-14T16:41:41.746Z,6.90
2022-09-14T16:44:13.924Z,7.68
2022-09-14T16:46:41.722Z,12.27
2022-09-14T16:49:09.529Z,9.48
2022-09-14T16:51:37.756Z,8.40
2022-09-14T16:54:05.762Z,9.32
2022-09-14T16:56:35.595Z,9.23
2022-09-14T16:59:04.356Z,9.45
2022-09-14T17:01:35.138Z,8.38
2022-09-14T17:04:08.186Z,8.02
2022-09-14T17:06:37.775Z,7.75
2022-09-14T17:09:08.928Z,7.40
2022-09-14T17:11:38.004Z,7.80
2022-09-14T17:14:06.685Z,7.55
2022-09-14T17:16:35.993Z,7.53
2022-09-14T17:19:05.660Z,7.07
2022-09-14T17:21:35.281Z,6.72
2022-09-14T17:24:04.373Z,7.32
2022-09-14T17:26:32.889Z,6.85
2022-09-14T17:29:01.933Z,8.07
2022-09-14T17:31:31.909Z,6.38
2022-09-14T17:34:02.618Z,7.60
2022-09-14T17:36:31.098Z,6.35
2022-09-14T17:39:01.869Z,6.57
2022-09-14T17:41:31.641Z,7.65
2022-09-14T17:44:02.147Z,6.50
2022-09-14T17:46:30.662Z,7.47
2022-09-14T17:49:00.452Z,7.43
2022-09-14T17:51:30.803Z,7.68
2022-09-14T17:53:59.833Z,6.60
2022-09-14T17:56:29.182Z,8.48
2022-09-14T17:59:02.969Z,7.60
2022-09-14T18:01:31.939Z,6.75
2022-09-14T18:04:02.930Z,8.90
2022-09-14T18:06:35.614Z,8.50
2022-09-14T18:09:05.931Z,7.72
2022-09-14T18:11:34.466Z,6.82
2022-09-14T18:14:03.643Z,6.95
2022-09-14T18:16:31.807Z,6.82
2022-09-14T18:18:59.890Z,7.32
2022-09-14T18:21:28.138Z,7.63
2022-09-14T18:23:57.280Z,7.40
2022-09-14T18:26:26.241Z,7.80
2022-09-14T18:28:55.977Z,9.93
2022-09-14T18:31:24.325Z,8.18
2022-09-14T18:33:53.676Z,8.55
2022-09-14T18:36:22.250Z,8.10
2022-09-14T18:38:51.476Z,10.35
2022-09-14T18:41:21.604Z,7.85
2022-09-14T18:43:51.377Z,8.50
2022-09-14T18:46:22.398Z,7.50
2022-09-14T18:48:52.886Z,7.60
2022-09-14T18:51:20.783Z,7.45
2022-09-14T18:53:48.670Z,10.70
2022-09-14T18:56:17.953Z,8.93
2022-09-14T18:58:48.810Z,9.48
2022-09-14T19:01:16.585Z,8.45
2022-09-14T19:03:45.076Z,9.48
2022-09-14T19:06:15.264Z,8.45
2022-09-14T19:08:43.534Z,9.57
2022-09-14T19:11:13.106Z,8.40
2022-09-14T19:13:41.302Z,7.95
2022-09-14T19:16:12.387Z,11.43
2022-09-14T19:18:40.542Z,9.73
2022-09-14T19:21:14.342Z,8.68
2022-09-14T19:23:42.958Z,12.45
2022-09-14T19:26:15.059Z,12.13
2022-09-14T19:28:43.312Z,11.73
2022-09-14T19:31:22.849Z,10.18
2022-09-14T19:33:51.196Z,14.90
2022-09-14T19:36:20.930Z,15.45
2022-09-14T19:38:49.739Z,12.75
2022-09-14T19:41:17.994Z,14.10
2022-09-14T19:43:46.227Z,12.63
2022-09-14T19:46:17.181Z,11.05
2022-09-14T19:48:45.657Z,12.23
2022-09-14T19:51:15.423Z,14.40
2022-09-14T19:53:44.090Z,10.18
2022-09-14T19:56:14.063Z,12.25
2022-09-14T19:58:43.807Z,14.18
2022-09-14T20:01:12.265Z,14.70
2022-09-14T20:03:41.640Z,15.10
2022-09-14T20:06:11.352Z,12.23
2022-09-14T20:08:39.472Z,10.65
2022-09-14T20:11:08.394Z,11.23
2022-09-14T20:13:36.665Z,14.30
2022-09-14T20:16:12.523Z,12.32
2022-09-14T20:18:42.414Z,15.02
2022-09-14T20:21:11.806Z,11.40
2022-09-14T20:24:11.366Z,13.85
2022-09-14T20:26:35.550Z,13.10
2022-09-14T20:29:03.491Z,12.27
2022-09-14T20:31:32.245Z,12.80
2022-09-14T20:34:01.974Z,14.57
2022-09-14T20:36:31.115Z,13.82
2022-09-14T20:39:00.206Z,14.88
2022-09-14T20:41:30.187Z,14.25
2022-09-14T20:43:58.238Z,15.77
2022-09-14T20:46:27.714Z,11.88
2022-09-14T20:48:55.948Z,10.23
2022-09-14T20:51:26.558Z,11.07
2022-09-14T20:53:56.105Z,10.73
2022-09-14T20:56:26.262Z,12.48
2022-09-14T20:58:55.615Z,14.32
2022-09-14T21:01:25.498Z,15.68
2022-09-14T21:03:53.541Z,15.20
2022-09-14T21:06:26.347Z,12.05
2022-09-14T21:08:54.221Z,11.45
2022-09-14T21:11:23.916Z,9.85
2022-09-14T21:13:53.102Z,14.50
2022-09-14T21:16:24.598Z,9.75
2022-09-14T21:18:55.427Z,10.80
2022-09-14T21:21:23.591Z,13.50
2022-09-14T21:23:54.061Z,14.07
2022-09-14T21:26:21.734Z,12.35
2022-09-14T21:28:49.532Z,17.08
2022-09-14T21:31:19.287Z,10.25
2022-09-14T21:33:48.975Z,12.40
2022-09-14T21:36:18.718Z,10.75
2022-09-14T21:38:50.522Z,11.05
2022-09-14T21:41:21.084Z,12.07
2022-09-14T21:43:49.048Z,16.30
2022-09-14T21:46:17.469Z,18.83
2022-09-14T21:48:45.672Z,18.88
2022-09-14T21:51:18.070Z,16.77
2022-09-14T21:56:14.636Z,19.40
2022-09-14T21:58:44.116Z,13.50
2022-09-14T22:01:12.194Z,14.45
2022-09-14T22:03:40.330Z,18.05
2022-09-14T22:06:11.138Z,13.70
2022-09-14T22:08:38.890Z,13.65
2022-09-14T22:11:07.895Z,16.67
2022-09-14T22:13:35.654Z,19.30
2022-09-14T22:16:09.028Z,19.92
2022-09-14T22:18:37.808Z,22.30
2022-09-14T22:21:06.276Z,21.33
2022-09-14T22:23:35.002Z,21.77
2022-09-14T22:26:07.238Z,15.57
2022-09-14T22:28:35.019Z,14.73
2022-09-14T22:31:03.054Z,21.58
2022-09-14T22:33:32.216Z,23.58
2022-09-14T22:36:02.039Z,18.00
2022-09-14T22:38:32.860Z,15.95
2022-09-14T22:41:02.366Z,13.85
2022-09-14T22:43:30.770Z,13.00
2022-09-14T22:45:59.150Z,14.52
2022-09-14T22:48:27.458Z,18.85
2022-09-14T22:50:58.072Z,21.92
2022-09-14T22:53:26.919Z,16.98
2022-09-14T22:55:55.004Z,24.02
2022-09-14T22:58:25.101Z,21.75
2022-09-14T23:00:53.492Z,17.20
2022-09-14T23:03:21.571Z,25.15
2022-09-14T23:05:50.833Z,17.20
2022-09-14T23:08:20.579Z,16.40
2022-09-14T23:10:48.800Z,25.40
2022-09-14T23:13:17.127Z,24.98
2022-09-14T23:15:44.958Z,21.27
2022-09-14T23:18:13.460Z,16.90
2022-09-14T23:20:42.887Z,19.98
2022-09-14T23:23:10.985Z,25.38
2022-09-14T23:25:41.618Z,21.65
2022-09-14T23:28:12.588Z,27.42
2022-09-14T23:30:40.491Z,26.65
2022-09-14T23:33:08.201Z,22.10
2022-09-14T23:35:37.897Z,30.48
2022-09-14T23:38:05.727Z,30.40
2022-09-14T23:40:33.473Z,23.45
2022-09-14T23:43:02.587Z,30.92
2022-09-14T23:45:30.232Z,26.38
2022-09-14T23:47:57.982Z,27.80
2022-09-14T23:50:25.734Z,28.60
2022-09-14T23:52:57.314Z,28.70
2022-09-14T23:55:25.093Z,30.53
2022-09-14T23:57:52.779Z,33.47
